sensor_id;sensor_type;location;lat;lon;timestamp;temperature;humidity
48376;DHT22;34178;50.904;11.560;2024-02-23T00:00:04;12.00;99.90
48376;DHT22;34178;50.904;11.560;2024-02-23T00:02:31;11.90;99.90
48376;DHT22;34178;50.904;11.560;2024-02-23T00:04:56;11.90;99.90
48376;DHT22;34178;50.904;11.560;2024-02-23T00:07:22;11.90;99.90
48376;DHT22;34178;50.904;11.560;2024-02-23T00:09:47;11.90;99.90
48376;DHT22;34178;50.904;11.560;2024-02-23T00:12:13;11.90;99.90
48376;DHT22;34178;50.904;11.560;2024-02-23T00:14:39;11.80;99.90
48376;DHT22;34178;50.904;11.560;2024-02-23T00:17:04;11.80;99.90
48376;DHT22;34178;50.904;11.560;2024-02-23T00:19:30;11.70;99.90
48376;DHT22;34178;50.904;11.560;2024-02-23T00:21:56;11.70;99.90
48376;DHT22;34178;50.904;11.560;2024-02-23T00:24:22;11.70;99.90
48376;DHT22;34178;50.904;11.560;2024-02-23T00:26:47;11.70;99.90
48376;DHT22;34178;50.904;11.560;2024-02-23T00:29:13;11.70;99.90
48376;DHT22;34178;50.904;11.560;2024-02-23T00:31:39;11.70;99.90
48376;DHT22;34178;50.904;11.560;2024-02-23T00:34:06;11.70;99.90
48376;DHT22;34178;50.904;11.560;2024-02-23T00:36:37;11.60;99.90
48376;DHT22;34178;50.904;11.560;2024-02-23T00:39:03;11.60;99.90
48376;DHT22;34178;50.904;11.560;2024-02-23T00:41:28;11.50;99.90
48376;DHT22;34178;50.904;11.560;2024-02-23T00:43:54;11.50;99.90
48376;DHT22;34178;50.904;11.560;2024-02-23T00:46:20;11.50;99.90
48376;DHT22;34178;50.904;11.560;2024-02-23T00:48:45;11.40;99.90
48376;DHT22;34178;50.904;11.560;2024-02-23T00:51:11;11.40;99.90
48376;DHT22;34178;50.904;11.560;2024-02-23T00:53:36;11.30;99.90
48376;DHT22;34178;50.904;11.560;2024-02-23T00:56:02;11.30;99.90
48376;DHT22;34178;50.904;11.560;2024-02-23T00:58:27;11.30;99.90
48376;DHT22;34178;50.904;11.560;2024-02-23T01:00:53;11.20;99.90
48376;DHT22;34178;50.904;11.560;2024-02-23T01:03:18;11.20;99.90
48376;DHT22;34178;50.904;11.560;2024-02-23T01:05:44;11.10;99.80
48376;DHT22;34178;50.904;11.560;2024-02-23T01:08:09;11.10;99.60
48376;DHT22;34178;50.904;11.560;2024-02-23T01:10:35;11.00;99.60
48376;DHT22;34178;50.904;11.560;2024-02-23T01:13:00;11.00;99.40
48376;DHT22;34178;50.904;11.560;2024-02-23T01:15:26;10.90;99.30
48376;DHT22;34178;50.904;11.560;2024-02-23T01:17:51;10.90;99.20
48376;DHT22;34178;50.904;11.560;2024-02-23T01:20:17;10.80;99.60
48376;DHT22;34178;50.904;11.560;2024-02-23T01:22:43;10.80;99.90
48376;DHT22;34178;50.904;11.560;2024-02-23T01:25:08;10.80;99.90
48376;DHT22;34178;50.904;11.560;2024-02-23T01:27:34;10.70;99.90
48376;DHT22;34178;50.904;11.560;2024-02-23T01:29:59;10.60;99.90
48376;DHT22;34178;50.904;11.560;2024-02-23T01:32:25;10.60;99.90
48376;DHT22;34178;50.904;11.560;2024-02-23T01:34:50;10.50;99.90
48376;DHT22;34178;50.904;11.560;2024-02-23T01:37:16;10.50;99.90
48376;DHT22;34178;50.904;11.560;2024-02-23T01:39:42;10.40;99.90
48376;DHT22;34178;50.904;11.560;2024-02-23T01:42:08;10.30;99.90
48376;DHT22;34178;50.904;11.560;2024-02-23T01:44:33;10.20;99.90
48376;DHT22;34178;50.904;11.560;2024-02-23T01:46:59;10.10;99.90
48376;DHT22;34178;50.904;11.560;2024-02-23T01:49:24;10.10;99.90
48376;DHT22;34178;50.904;11.560;2024-02-23T01:51:55;10.00;99.90
48376;DHT22;34178;50.904;11.560;2024-02-23T01:54:21;9.90;99.90
48376;DHT22;34178;50.904;11.560;2024-02-23T01:56:47;9.80;99.90
48376;DHT22;34178;50.904;11.560;2024-02-23T01:59:12;9.70;99.90
48376;DHT22;34178;50.904;11.560;2024-02-23T02:01:38;9.70;99.90
48376;DHT22;34178;50.904;11.560;2024-02-23T02:04:04;9.60;99.90
48376;DHT22;34178;50.904;11.560;2024-02-23T02:06:29;9.60;99.90
48376;DHT22;34178;50.904;11.560;2024-02-23T02:08:55;9.60;99.90
48376;DHT22;34178;50.904;11.560;2024-02-23T02:11:21;9.50;99.90
48376;DHT22;34178;50.904;11.560;2024-02-23T02:13:46;9.50;99.90
48376;DHT22;34178;50.904;11.560;2024-02-23T02:16:12;9.50;99.90
48376;DHT22;34178;50.904;11.560;2024-02-23T02:18:37;9.50;99.90
48376;DHT22;34178;50.904;11.560;2024-02-23T02:21:03;9.40;99.90
48376;DHT22;34178;50.904;11.560;2024-02-23T02:23:28;9.40;99.90
48376;DHT22;34178;50.904;11.560;2024-02-23T02:25:55;9.40;99.90
48376;DHT22;34178;50.904;11.560;2024-02-23T02:28:21;9.30;99.90
48376;DHT22;34178;50.904;11.560;2024-02-23T02:30:46;9.30;99.90
48376;DHT22;34178;50.904;11.560;2024-02-23T02:33:12;9.30;99.90
48376;DHT22;34178;50.904;11.560;2024-02-23T02:35:37;9.20;99.90
48376;DHT22;34178;50.904;11.560;2024-02-23T02:38:03;9.20;99.90
48376;DHT22;34178;50.904;11.560;2024-02-23T02:40:28;9.10;99.90
48376;DHT22;34178;50.904;11.560;2024-02-23T02:42:54;9.10;99.90
48376;DHT22;34178;50.904;11.560;2024-02-23T02:45:20;9.10;99.90
48376;DHT22;34178;50.904;11.560;2024-02-23T02:47:45;9.00;99.90
48376;DHT22;34178;50.904;11.560;2024-02-23T02:50:11;9.00;99.90
48376;DHT22;34178;50.904;11.560;2024-02-23T02:52:36;8.90;99.90
48376;DHT22;34178;50.904;11.560;2024-02-23T02:55:02;8.90;99.90
48376;DHT22;34178;50.904;11.560;2024-02-23T02:57:28;8.90;99.90
48376;DHT22;34178;50.904;11.560;2024-02-23T02:59:55;8.80;99.70
48376;DHT22;34178;50.904;11.560;2024-02-23T03:02:20;8.80;99.60
48376;DHT22;34178;50.904;11.560;2024-02-23T03:04:46;8.80;99.50
48376;DHT22;34178;50.904;11.560;2024-02-23T03:07:12;8.70;99.50
48376;DHT22;34178;50.904;11.560;2024-02-23T03:09:38;8.60;99.70
48376;DHT22;34178;50.904;11.560;2024-02-23T03:12:03;8.60;99.40
48376;DHT22;34178;50.904;11.560;2024-02-23T03:14:29;8.60;99.30
48376;DHT22;34178;50.904;11.560;2024-02-23T03:16:54;8.60;99.10
48376;DHT22;34178;50.904;11.560;2024-02-23T03:19:20;8.60;99.50
48376;DHT22;34178;50.904;11.560;2024-02-23T03:21:47;8.50;99.50
48376;DHT22;34178;50.904;11.560;2024-02-23T03:24:13;8.40;99.70
48376;DHT22;34178;50.904;11.560;2024-02-23T03:26:38;8.30;99.90
48376;DHT22;34178;50.904;11.560;2024-02-23T03:29:04;8.30;99.90
48376;DHT22;34178;50.904;11.560;2024-02-23T03:31:29;8.30;99.90
48376;DHT22;34178;50.904;11.560;2024-02-23T03:33:55;8.20;99.90
48376;DHT22;34178;50.904;11.560;2024-02-23T03:36:20;8.30;99.90
48376;DHT22;34178;50.904;11.560;2024-02-23T03:38:46;8.20;99.90
48376;DHT22;34178;50.904;11.560;2024-02-23T03:41:12;8.10;99.90
48376;DHT22;34178;50.904;11.560;2024-02-23T03:43:37;8.00;99.90
48376;DHT22;34178;50.904;11.560;2024-02-23T03:46:03;7.90;99.90
48376;DHT22;34178;50.904;11.560;2024-02-23T03:48:29;8.00;99.90
48376;DHT22;34178;50.904;11.560;2024-02-23T03:50:54;8.00;99.90
48376;DHT22;34178;50.904;11.560;2024-02-23T03:53:20;8.00;99.90
48376;DHT22;34178;50.904;11.560;2024-02-23T03:55:45;7.90;99.90
48376;DHT22;34178;50.904;11.560;2024-02-23T03:58:11;7.90;99.90
48376;DHT22;34178;50.904;11.560;2024-02-23T04:00:36;7.80;99.90
48376;DHT22;34178;50.904;11.560;2024-02-23T04:03:02;7.90;99.90
48376;DHT22;34178;50.904;11.560;2024-02-23T04:05:27;7.80;99.90
48376;DHT22;34178;50.904;11.560;2024-02-23T04:07:53;7.80;99.90
48376;DHT22;34178;50.904;11.560;2024-02-23T08:46:28;8.30;98.30
48376;DHT22;34178;50.904;11.560;2024-02-23T08:48:54;8.20;97.90
48376;DHT22;34178;50.904;11.560;2024-02-23T08:51:19;8.20;98.40
48376;DHT22;34178;50.904;11.560;2024-02-23T08:53:45;8.20;98.00
48376;DHT22;34178;50.904;11.560;2024-02-23T08:56:11;8.20;97.70
48376;DHT22;34178;50.904;11.560;2024-02-23T08:58:37;8.30;97.50
48376;DHT22;34178;50.904;11.560;2024-02-23T09:01:02;8.30;97.00
48376;DHT22;34178;50.904;11.560;2024-02-23T09:03:29;8.20;97.30
48376;DHT22;34178;50.904;11.560;2024-02-23T09:05:55;8.30;97.40
48376;DHT22;34178;50.904;11.560;2024-02-23T09:08:20;8.50;97.50
48376;DHT22;34178;50.904;11.560;2024-02-23T09:10:46;8.30;96.60
48376;DHT22;34178;50.904;11.560;2024-02-23T09:13:12;8.10;97.10
48376;DHT22;34178;50.904;11.560;2024-02-23T09:15:37;8.20;96.90
48376;DHT22;34178;50.904;11.560;2024-02-23T09:18:03;8.10;97.10
48376;DHT22;34178;50.904;11.560;2024-02-23T09:20:28;8.30;97.60
48376;DHT22;34178;50.904;11.560;2024-02-23T09:22:54;8.40;96.30
48376;DHT22;34178;50.904;11.560;2024-02-23T09:25:19;8.30;96.60
48376;DHT22;34178;50.904;11.560;2024-02-23T09:27:45;8.30;96.60
48376;DHT22;34178;50.904;11.560;2024-02-23T09:30:11;8.40;96.50
48376;DHT22;34178;50.904;11.560;2024-02-23T09:32:37;8.40;96.40
48376;DHT22;34178;50.904;11.560;2024-02-23T09:35:03;8.30;96.10
48376;DHT22;34178;50.904;11.560;2024-02-23T09:37:29;8.40;96.30
48376;DHT22;34178;50.904;11.560;2024-02-23T09:39:54;8.40;96.00
48376;DHT22;34178;50.904;11.560;2024-02-23T09:42:20;8.40;95.80
48376;DHT22;34178;50.904;11.560;2024-02-23T09:44:48;8.30;95.60
48376;DHT22;34178;50.904;11.560;2024-02-23T09:47:17;8.20;95.90
48376;DHT22;34178;50.904;11.560;2024-02-23T09:49:42;8.20;96.20
48376;DHT22;34178;50.904;11.560;2024-02-23T09:52:09;8.40;96.10
48376;DHT22;34178;50.904;11.560;2024-02-23T09:54:38;8.60;97.20
48376;DHT22;34178;50.904;11.560;2024-02-23T09:57:06;8.70;96.70
48376;DHT22;34178;50.904;11.560;2024-02-23T09:59:32;8.70;95.70
48376;DHT22;34178;50.904;11.560;2024-02-23T10:01:59;8.80;96.00
48376;DHT22;34178;50.904;11.560;2024-02-23T10:04:25;9.00;96.40
48376;DHT22;34178;50.904;11.560;2024-02-23T10:06:52;9.10;95.40
48376;DHT22;34178;50.904;11.560;2024-02-23T10:09:17;8.60;95.20
48376;DHT22;34178;50.904;11.560;2024-02-23T10:11:44;8.50;96.10
48376;DHT22;34178;50.904;11.560;2024-02-23T10:14:10;8.40;95.60
48376;DHT22;34178;50.904;11.560;2024-02-23T10:16:36;8.10;95.80
48376;DHT22;34178;50.904;11.560;2024-02-23T10:19:01;8.20;96.30
48376;DHT22;34178;50.904;11.560;2024-02-23T10:21:28;8.30;95.80
48376;DHT22;34178;50.904;11.560;2024-02-23T10:23:55;8.40;96.00
48376;DHT22;34178;50.904;11.560;2024-02-23T10:26:20;8.50;95.70
48376;DHT22;34178;50.904;11.560;2024-02-23T10:28:48;8.40;95.40
48376;DHT22;34178;50.904;11.560;2024-02-23T10:31:13;8.40;95.80
48376;DHT22;34178;50.904;11.560;2024-02-23T10:33:39;8.20;95.50
48376;DHT22;34178;50.904;11.560;2024-02-23T10:36:05;8.10;95.70
48376;DHT22;34178;50.904;11.560;2024-02-23T10:38:32;8.20;96.00
48376;DHT22;34178;50.904;11.560;2024-02-23T10:40:58;8.30;95.60
48376;DHT22;34178;50.904;11.560;2024-02-23T10:43:44;8.30;95.70
48376;DHT22;34178;50.904;11.560;2024-02-23T10:46:11;8.40;95.50
48376;DHT22;34178;50.904;11.560;2024-02-23T10:48:41;8.30;96.10
48376;DHT22;34178;50.904;11.560;2024-02-23T10:51:07;8.60;95.90
48376;DHT22;34178;50.904;11.560;2024-02-23T10:53:34;8.70;95.00
48376;DHT22;34178;50.904;11.560;2024-02-23T10:56:00;8.60;95.30
48376;DHT22;34178;50.904;11.560;2024-02-23T10:58:28;8.60;95.40
48376;DHT22;34178;50.904;11.560;2024-02-23T11:00:57;8.50;95.40
48376;DHT22;34178;50.904;11.560;2024-02-23T11:03:26;8.50;95.50
48376;DHT22;34178;50.904;11.560;2024-02-23T11:05:53;8.60;95.40
48376;DHT22;34178;50.904;11.560;2024-02-23T11:08:19;8.60;95.30
48376;DHT22;34178;50.904;11.560;2024-02-23T11:10:51;8.50;95.80
48376;DHT22;34178;50.904;11.560;2024-02-23T11:13:17;8.60;95.40
48376;DHT22;34178;50.904;11.560;2024-02-23T11:15:43;8.50;95.30
48376;DHT22;34178;50.904;11.560;2024-02-23T11:18:21;8.50;95.60
48376;DHT22;34178;50.904;11.560;2024-02-23T11:20:53;8.40;95.40
48376;DHT22;34178;50.904;11.560;2024-02-23T11:23:19;8.50;95.60
48376;DHT22;34178;50.904;11.560;2024-02-23T11:25:58;8.40;95.90
48376;DHT22;34178;50.904;11.560;2024-02-23T11:28:26;8.60;95.30
48376;DHT22;34178;50.904;11.560;2024-02-23T11:30:52;8.70;95.00
48376;DHT22;34178;50.904;11.560;2024-02-23T11:33:37;8.70;95.10
48376;DHT22;34178;50.904;11.560;2024-02-23T11:36:06;8.70;95.10
48376;DHT22;34178;50.904;11.560;2024-02-23T11:38:32;8.80;95.50
48376;DHT22;34178;50.904;11.560;2024-02-23T11:40:58;8.90;94.80
48376;DHT22;34178;50.904;11.560;2024-02-23T11:43:24;8.90;94.90
48376;DHT22;34178;50.904;11.560;2024-02-23T11:45:50;8.90;95.20
48376;DHT22;34178;50.904;11.560;2024-02-23T11:48:16;8.80;94.90
48376;DHT22;34178;50.904;11.560;2024-02-23T11:50:42;8.60;94.80
48376;DHT22;34178;50.904;11.560;2024-02-23T11:53:08;8.90;94.90
48376;DHT22;34178;50.904;11.560;2024-02-23T11:55:33;8.90;94.40
48376;DHT22;34178;50.904;11.560;2024-02-23T11:57:59;9.00;94.40
48376;DHT22;34178;50.904;11.560;2024-02-23T12:00:24;9.00;94.50
48376;DHT22;34178;50.904;11.560;2024-02-23T12:02:50;9.20;95.20
48376;DHT22;34178;50.904;11.560;2024-02-23T12:05:16;9.30;94.00
48376;DHT22;34178;50.904;11.560;2024-02-23T12:07:41;9.00;94.20
48376;DHT22;34178;50.904;11.560;2024-02-23T12:10:07;8.90;94.80
48376;DHT22;34178;50.904;11.560;2024-02-23T12:12:33;9.00;94.50
48376;DHT22;34178;50.904;11.560;2024-02-23T12:14:59;9.20;93.80
48376;DHT22;34178;50.904;11.560;2024-02-23T12:17:25;9.20;94.30
48376;DHT22;34178;50.904;11.560;2024-02-23T12:20:02;9.00;93.90
48376;DHT22;34178;50.904;11.560;2024-02-23T12:22:28;9.10;94.60
48376;DHT22;34178;50.904;11.560;2024-02-23T12:24:56;9.20;94.30
48376;DHT22;34178;50.904;11.560;2024-02-23T12:27:22;9.30;94.10
48376;DHT22;34178;50.904;11.560;2024-02-23T12:29:52;9.40;94.70
48376;DHT22;34178;50.904;11.560;2024-02-23T12:32:19;9.30;94.30
48376;DHT22;34178;50.904;11.560;2024-02-23T12:34:45;9.40;94.50
48376;DHT22;34178;50.904;11.560;2024-02-23T12:37:10;9.40;95.10
48376;DHT22;34178;50.904;11.560;2024-02-23T12:39:36;9.40;94.70
48376;DHT22;34178;50.904;11.560;2024-02-23T12:42:01;9.40;95.00
48376;DHT22;34178;50.904;11.560;2024-02-23T12:44:27;9.50;95.50
48376;DHT22;34178;50.904;11.560;2024-02-23T12:46:53;9.70;95.80
48376;DHT22;34178;50.904;11.560;2024-02-23T12:49:18;9.70;94.90
48376;DHT22;34178;50.904;11.560;2024-02-23T12:51:44;9.70;94.60
48376;DHT22;34178;50.904;11.560;2024-02-23T12:54:09;9.20;95.00
48376;DHT22;34178;50.904;11.560;2024-02-23T12:56:35;9.10;95.30
48376;DHT22;34178;50.904;11.560;2024-02-23T12:59:01;9.10;95.40
48376;DHT22;34178;50.904;11.560;2024-02-23T13:01:26;9.20;95.10
48376;DHT22;34178;50.904;11.560;2024-02-23T13:03:52;9.20;94.10
48376;DHT22;34178;50.904;11.560;2024-02-23T13:06:17;8.90;94.90
48376;DHT22;34178;50.904;11.560;2024-02-23T13:08:43;8.70;95.00
48376;DHT22;34178;50.904;11.560;2024-02-23T13:11:08;8.90;94.80
48376;DHT22;34178;50.904;11.560;2024-02-23T13:13:34;9.10;95.00
48376;DHT22;34178;50.904;11.560;2024-02-23T13:16:00;9.00;94.70
48376;DHT22;34178;50.904;11.560;2024-02-23T13:18:25;8.90;95.00
48376;DHT22;34178;50.904;11.560;2024-02-23T13:20:51;8.90;94.80
48376;DHT22;34178;50.904;11.560;2024-02-23T13:23:16;8.90;94.90
48376;DHT22;34178;50.904;11.560;2024-02-23T13:25:42;8.90;94.80
48376;DHT22;34178;50.904;11.560;2024-02-23T13:28:08;9.00;95.10
48376;DHT22;34178;50.904;11.560;2024-02-23T13:30:34;9.00;94.00
48376;DHT22;34178;50.904;11.560;2024-02-23T13:33:00;9.00;95.00
48376;DHT22;34178;50.904;11.560;2024-02-23T13:35:26;9.10;93.80
48376;DHT22;34178;50.904;11.560;2024-02-23T13:37:51;9.10;93.80
48376;DHT22;34178;50.904;11.560;2024-02-23T13:40:17;9.10;93.90
48376;DHT22;34178;50.904;11.560;2024-02-23T13:42:43;9.20;94.10
48376;DHT22;34178;50.904;11.560;2024-02-23T13:45:11;8.90;94.00
48376;DHT22;34178;50.904;11.560;2024-02-23T13:47:39;9.00;94.00
48376;DHT22;34178;50.904;11.560;2024-02-23T13:50:04;9.00;94.00
48376;DHT22;34178;50.904;11.560;2024-02-23T13:52:31;9.10;94.40
48376;DHT22;34178;50.904;11.560;2024-02-23T13:54:56;9.20;93.90
48376;DHT22;34178;50.904;11.560;2024-02-23T13:57:22;9.20;94.20
48376;DHT22;34178;50.904;11.560;2024-02-23T13:59:48;9.20;94.20
48376;DHT22;34178;50.904;11.560;2024-02-23T14:02:13;9.20;93.90
48376;DHT22;34178;50.904;11.560;2024-02-23T14:04:39;9.30;94.20
48376;DHT22;34178;50.904;11.560;2024-02-23T14:07:05;9.30;94.10
48376;DHT22;34178;50.904;11.560;2024-02-23T14:09:30;9.30;93.90
48376;DHT22;34178;50.904;11.560;2024-02-23T14:11:56;9.20;94.20
48376;DHT22;34178;50.904;11.560;2024-02-23T14:14:22;9.20;94.10
48376;DHT22;34178;50.904;11.560;2024-02-23T14:16:48;9.30;94.40
48376;DHT22;34178;50.904;11.560;2024-02-23T14:19:13;9.40;93.80
48376;DHT22;34178;50.904;11.560;2024-02-23T14:21:39;9.50;94.20
48376;DHT22;34178;50.904;11.560;2024-02-23T14:24:04;9.80;94.90
48376;DHT22;34178;50.904;11.560;2024-02-23T14:26:30;10.00;94.20
48376;DHT22;34178;50.904;11.560;2024-02-23T14:28:56;10.10;93.20
48376;DHT22;34178;50.904;11.560;2024-02-23T14:31:21;10.00;92.80
48376;DHT22;34178;50.904;11.560;2024-02-23T14:33:47;9.70;93.10
48376;DHT22;34178;50.904;11.560;2024-02-23T14:36:16;9.60;93.60
48376;DHT22;34178;50.904;11.560;2024-02-23T14:38:42;9.40;93.20
48376;DHT22;34178;50.904;11.560;2024-02-23T14:41:08;9.50;93.40
48376;DHT22;34178;50.904;11.560;2024-02-23T14:43:34;9.60;93.40
48376;DHT22;34178;50.904;11.560;2024-02-23T14:46:00;9.70;94.80
48376;DHT22;34178;50.904;11.560;2024-02-23T14:48:25;9.70;94.50
48376;DHT22;34178;50.904;11.560;2024-02-23T14:50:51;9.80;95.00
48376;DHT22;34178;50.904;11.560;2024-02-23T14:53:16;9.90;95.00
48376;DHT22;34178;50.904;11.560;2024-02-23T14:55:42;9.80;94.70
48376;DHT22;34178;50.904;11.560;2024-02-23T14:58:08;9.70;93.70
48376;DHT22;34178;50.904;11.560;2024-02-23T15:00:34;9.70;94.90
48376;DHT22;34178;50.904;11.560;2024-02-23T15:02:59;9.80;94.70
48376;DHT22;34178;50.904;11.560;2024-02-23T15:05:25;9.80;94.40
48376;DHT22;34178;50.904;11.560;2024-02-23T15:07:51;10.00;93.50
48376;DHT22;34178;50.904;11.560;2024-02-23T15:10:17;10.10;93.20
48376;DHT22;34178;50.904;11.560;2024-02-23T15:12:42;10.10;93.50
48376;DHT22;34178;50.904;11.560;2024-02-23T15:15:08;10.10;92.80
48376;DHT22;34178;50.904;11.560;2024-02-23T15:17:35;9.90;93.20
48376;DHT22;34178;50.904;11.560;2024-02-23T15:20:00;9.80;93.60
48376;DHT22;34178;50.904;11.560;2024-02-23T15:22:26;9.70;93.40
48376;DHT22;34178;50.904;11.560;2024-02-23T15:24:52;9.30;93.30
48376;DHT22;34178;50.904;11.560;2024-02-23T15:27:20;9.10;93.60
48376;DHT22;34178;50.904;11.560;2024-02-23T15:29:46;9.00;93.80
48376;DHT22;34178;50.904;11.560;2024-02-23T15:32:13;9.00;93.80
48376;DHT22;34178;50.904;11.560;2024-02-23T15:34:38;8.90;93.90
48376;DHT22;34178;50.904;11.560;2024-02-23T15:37:04;8.90;95.40
48376;DHT22;34178;50.904;11.560;2024-02-23T15:39:30;8.90;95.00
48376;DHT22;34178;50.904;11.560;2024-02-23T15:41:55;8.80;94.10
48376;DHT22;34178;50.904;11.560;2024-02-23T15:44:21;8.70;95.30
48376;DHT22;34178;50.904;11.560;2024-02-23T15:46:47;8.60;95.40
48376;DHT22;34178;50.904;11.560;2024-02-23T15:49:12;8.50;95.90
48376;DHT22;34178;50.904;11.560;2024-02-23T15:51:38;8.40;96.40
48376;DHT22;34178;50.904;11.560;2024-02-23T15:54:04;8.30;96.80
48376;DHT22;34178;50.904;11.560;2024-02-23T15:56:30;8.20;97.00
48376;DHT22;34178;50.904;11.560;2024-02-23T15:58:55;8.10;96.00
48376;DHT22;34178;50.904;11.560;2024-02-23T16:01:21;8.10;96.30
48376;DHT22;34178;50.904;11.560;2024-02-23T16:03:47;8.00;96.10
48376;DHT22;34178;50.904;11.560;2024-02-23T16:06:14;8.00;95.60
48376;DHT22;34178;50.904;11.560;2024-02-23T16:08:43;7.90;96.50
48376;DHT22;34178;50.904;11.560;2024-02-23T16:11:10;7.90;97.00
48376;DHT22;34178;50.904;11.560;2024-02-23T16:13:39;7.80;97.30
48376;DHT22;34178;50.904;11.560;2024-02-23T16:16:05;7.80;96.60
48376;DHT22;34178;50.904;11.560;2024-02-23T16:18:31;7.70;95.80
48376;DHT22;34178;50.904;11.560;2024-02-23T16:20:57;7.70;96.40
48376;DHT22;34178;50.904;11.560;2024-02-23T16:23:24;7.70;97.30
48376;DHT22;34178;50.904;11.560;2024-02-23T16:25:50;7.60;97.00
48376;DHT22;34178;50.904;11.560;2024-02-23T16:28:15;7.50;97.20
48376;DHT22;34178;50.904;11.560;2024-02-23T16:30:41;7.50;97.20
48376;DHT22;34178;50.904;11.560;2024-02-23T16:33:06;7.40;97.00
48376;DHT22;34178;50.904;11.560;2024-02-23T16:35:32;7.30;97.60
48376;DHT22;34178;50.904;11.560;2024-02-23T16:37:58;7.20;97.70
48376;DHT22;34178;50.904;11.560;2024-02-23T16:40:23;7.10;98.10
48376;DHT22;34178;50.904;11.560;2024-02-23T16:42:56;7.00;98.30
48376;DHT22;34178;50.904;11.560;2024-02-23T16:45:25;6.90;99.20
48376;DHT22;34178;50.904;11.560;2024-02-23T16:47:51;6.70;99.40
48376;DHT22;34178;50.904;11.560;2024-02-23T16:50:17;6.60;99.50
48376;DHT22;34178;50.904;11.560;2024-02-23T16:52:42;6.50;99.90
48376;DHT22;34178;50.904;11.560;2024-02-23T16:55:08;6.30;99.90
48376;DHT22;34178;50.904;11.560;2024-02-23T16:57:34;6.10;99.90
48376;DHT22;34178;50.904;11.560;2024-02-23T17:00:00;6.00;99.90
48376;DHT22;34178;50.904;11.560;2024-02-23T17:02:25;5.90;99.90
48376;DHT22;34178;50.904;11.560;2024-02-23T17:04:51;5.90;99.90
48376;DHT22;34178;50.904;11.560;2024-02-23T17:07:16;5.90;99.90
48376;DHT22;34178;50.904;11.560;2024-02-23T17:09:42;5.90;99.90
48376;DHT22;34178;50.904;11.560;2024-02-23T17:12:12;5.90;99.90
48376;DHT22;34178;50.904;11.560;2024-02-23T17:14:39;5.80;99.90
48376;DHT22;34178;50.904;11.560;2024-02-23T17:17:05;5.80;99.90
48376;DHT22;34178;50.904;11.560;2024-02-23T17:19:30;5.80;99.90
48376;DHT22;34178;50.904;11.560;2024-02-23T17:21:56;5.70;99.90
48376;DHT22;34178;50.904;11.560;2024-02-23T17:24:22;5.60;99.90
48376;DHT22;34178;50.904;11.560;2024-02-23T17:26:48;5.50;99.90
48376;DHT22;34178;50.904;11.560;2024-02-23T17:29:13;5.40;99.90
48376;DHT22;34178;50.904;11.560;2024-02-23T17:31:39;5.20;99.90
48376;DHT22;34178;50.904;11.560;2024-02-23T17:34:05;5.20;99.90
48376;DHT22;34178;50.904;11.560;2024-02-23T17:36:30;5.00;99.90
48376;DHT22;34178;50.904;11.560;2024-02-23T17:38:56;5.00;99.90
48376;DHT22;34178;50.904;11.560;2024-02-23T17:41:21;4.80;99.90
48376;DHT22;34178;50.904;11.560;2024-02-23T17:43:47;4.80;99.90
48376;DHT22;34178;50.904;11.560;2024-02-23T17:46:12;4.90;99.90
48376;DHT22;34178;50.904;11.560;2024-02-23T17:48:38;4.90;99.90
48376;DHT22;34178;50.904;11.560;2024-02-23T17:51:04;4.90;99.90
48376;DHT22;34178;50.904;11.560;2024-02-23T17:53:29;4.90;99.90
48376;DHT22;34178;50.904;11.560;2024-02-23T17:55:55;4.80;99.90
48376;DHT22;34178;50.904;11.560;2024-02-23T17:58:23;4.80;99.90
48376;DHT22;34178;50.904;11.560;2024-02-23T18:00:49;4.90;99.90
48376;DHT22;34178;50.904;11.560;2024-02-23T18:03:14;4.70;99.90
48376;DHT22;34178;50.904;11.560;2024-02-23T18:05:40;4.50;99.90
48376;DHT22;34178;50.904;11.560;2024-02-23T18:08:07;4.30;99.90
48376;DHT22;34178;50.904;11.560;2024-02-23T18:10:32;4.10;99.90
48376;DHT22;34178;50.904;11.560;2024-02-23T18:12:58;4.10;99.90
48376;DHT22;34178;50.904;11.560;2024-02-23T18:15:24;4.00;99.90
48376;DHT22;34178;50.904;11.560;2024-02-23T18:17:49;4.00;99.90
48376;DHT22;34178;50.904;11.560;2024-02-23T18:20:16;4.00;99.90
48376;DHT22;34178;50.904;11.560;2024-02-23T18:22:42;4.00;99.90
48376;DHT22;34178;50.904;11.560;2024-02-23T18:25:08;4.10;99.90
48376;DHT22;34178;50.904;11.560;2024-02-23T18:27:33;4.10;99.90
48376;DHT22;34178;50.904;11.560;2024-02-23T18:29:59;4.10;99.90
48376;DHT22;34178;50.904;11.560;2024-02-23T18:32:25;4.10;99.90
48376;DHT22;34178;50.904;11.560;2024-02-23T18:34:50;4.00;99.90
48376;DHT22;34178;50.904;11.560;2024-02-23T18:37:16;4.00;99.90
48376;DHT22;34178;50.904;11.560;2024-02-23T18:39:41;3.80;99.90
48376;DHT22;34178;50.904;11.560;2024-02-23T18:42:07;3.80;99.90
48376;DHT22;34178;50.904;11.560;2024-02-23T18:44:35;3.70;99.90
48376;DHT22;34178;50.904;11.560;2024-02-23T18:47:00;3.50;99.90
48376;DHT22;34178;50.904;11.560;2024-02-23T18:49:26;3.40;99.90
48376;DHT22;34178;50.904;11.560;2024-02-23T18:51:54;3.30;99.90
48376;DHT22;34178;50.904;11.560;2024-02-23T18:54:20;3.30;99.90
48376;DHT22;34178;50.904;11.560;2024-02-23T18:56:45;3.30;99.90
48376;DHT22;34178;50.904;11.560;2024-02-23T18:59:11;3.30;99.90
48376;DHT22;34178;50.904;11.560;2024-02-23T19:01:39;3.30;99.90
48376;DHT22;34178;50.904;11.560;2024-02-23T19:04:05;3.40;99.90
48376;DHT22;34178;50.904;11.560;2024-02-23T19:06:30;3.20;99.90
48376;DHT22;34178;50.904;11.560;2024-02-23T19:08:56;3.20;99.90
48376;DHT22;34178;50.904;11.560;2024-02-23T19:11:22;3.10;99.90
48376;DHT22;34178;50.904;11.560;2024-02-23T19:13:47;3.20;99.90
48376;DHT22;34178;50.904;11.560;2024-02-23T19:16:13;3.20;99.90
48376;DHT22;34178;50.904;11.560;2024-02-23T19:18:44;3.10;99.90
48376;DHT22;34178;50.904;11.560;2024-02-23T19:21:10;3.10;99.90
48376;DHT22;34178;50.904;11.560;2024-02-23T19:23:35;3.00;99.90
48376;DHT22;34178;50.904;11.560;2024-02-23T19:26:01;2.90;99.90
48376;DHT22;34178;50.904;11.560;2024-02-23T19:28:27;2.80;99.90
48376;DHT22;34178;50.904;11.560;2024-02-23T19:30:53;2.70;99.90
48376;DHT22;34178;50.904;11.560;2024-02-23T19:33:18;2.70;99.90
48376;DHT22;34178;50.904;11.560;2024-02-23T19:35:44;2.60;99.90
48376;DHT22;34178;50.904;11.560;2024-02-23T19:38:09;2.60;99.90
48376;DHT22;34178;50.904;11.560;2024-02-23T19:40:35;2.60;99.90
48376;DHT22;34178;50.904;11.560;2024-02-23T19:43:01;2.60;99.90
48376;DHT22;34178;50.904;11.560;2024-02-23T19:45:26;2.50;99.90
48376;DHT22;34178;50.904;11.560;2024-02-23T19:47:52;2.60;99.90
48376;DHT22;34178;50.904;11.560;2024-02-23T19:50:18;2.60;99.90
48376;DHT22;34178;50.904;11.560;2024-02-23T19:52:43;2.60;99.90
48376;DHT22;34178;50.904;11.560;2024-02-23T19:55:09;2.60;99.90